Time;durP1;ratioP1;P1;durP2;ratioP2;P2;SDS_P1;SDS_P2;PMS_P1;PMS_P2;Temp;Humidity;BMP_temperature;BMP_pressure;BME280_temperature;BME280_humidity;BME280_pressure;Samples;Min_cycle;Max_cycle;Signal;HPM_P1;HPM_P2
2023/09/26 00:02:25;;;;;;;10.33;4.13;;;16.00;99.90;;;;;;6247648;22;20436;-41
2023/09/26 00:04:51;;;;;;;4.20;3.37;;;16.00;99.90;;;;;;6247037;22;20430;-41
2023/09/26 00:07:17;;;;;;;3.23;2.93;;;15.90;99.90;;;;;;6247892;23;20391;-37
2023/09/26 00:09:43;;;;;;;4.33;3.07;;;15.80;99.90;;;;;;6245866;22;20648;-39
2023/09/26 00:12:09;;;;;;;3.57;3.27;;;15.80;99.90;;;;;;6246291;22;20396;-38
2023/09/26 00:14:34;;;;;;;3.33;3.03;;;15.80;99.90;;;;;;6247197;23;20543;-39
2023/09/26 00:17:00;;;;;;;4.43;3.83;;;15.80;99.90;;;;;;6247112;23;20133;-39
2023/09/26 00:19:25;;;;;;;3.80;3.50;;;15.80;99.90;;;;;;6247715;23;20171;-38
2023/09/26 00:21:51;;;;;;;6.73;3.53;;;15.80;99.90;;;;;;6247386;23;20509;-39
2023/09/26 00:24:17;;;;;;;4.03;3.03;;;15.70;99.90;;;;;;6247354;23;20176;-40
2023/09/26 00:26:42;;;;;;;3.93;3.53;;;15.70;99.90;;;;;;6246714;23;20150;-40
2023/09/26 00:29:09;;;;;;;4.03;3.37;;;15.70;99.90;;;;;;6246920;23;20133;-43
2023/09/26 00:31:34;;;;;;;3.87;3.43;;;15.70;99.90;;;;;;6247067;22;20140;-38
2023/09/26 00:34:00;;;;;;;3.50;3.20;;;15.70;99.90;;;;;;6246968;23;20392;-42
2023/09/26 00:36:25;;;;;;;6.17;3.90;;;15.60;99.90;;;;;;6246843;23;20153;-40
2023/09/26 00:38:51;;;;;;;4.03;2.90;;;15.70;1.00;;;;;;6247524;23;20164;-37
2023/09/26 00:41:17;;;;;;;3.80;3.17;;;15.60;1.00;;;;;;6245917;23;20215;-39
2023/09/26 00:43:42;;;;;;;4.03;3.73;;;15.60;1.00;;;;;;6245133;23;20195;-40
2023/09/26 00:46:08;;;;;;;3.50;3.20;;;15.60;1.00;;;;;;6247828;23;20154;-37
2023/09/26 00:48:36;;;;;;;6.57;3.80;;;15.50;1.00;;;;;;6245271;22;20207;-38
2023/09/26 00:51:02;;;;;;;4.63;3.73;;;15.50;1.00;;;;;;6244704;23;20388;-38
2023/09/26 00:53:29;;;;;;;5.50;3.70;;;15.50;1.00;;;;;;6245482;22;20641;-38
2023/09/26 00:55:55;;;;;;;3.73;3.37;;;15.50;1.00;;;;;;6244930;22;20888;-38
2023/09/26 00:58:22;;;;;;;4.47;3.73;;;15.40;1.00;;;;;;6246612;23;20396;-38
2023/09/26 01:00:50;;;;;;;3.90;3.30;;;15.40;1.00;;;;;;6246126;23;20388;-38
2023/09/26 01:03:16;;;;;;;4.83;3.00;;;15.40;1.00;;;;;;6247150;23;20392;-39
2023/09/26 01:05:41;;;;;;;3.80;3.03;;;15.40;1.00;;;;;;6244497;22;20427;-39
2023/09/26 01:08:07;;;;;;;3.83;3.43;;;15.30;1.00;;;;;;6245030;23;20180;-40
2023/09/26 01:10:33;;;;;;;3.33;3.03;;;15.30;1.00;;;;;;6244783;23;20461;-38
2023/09/26 01:12:59;;;;;;;3.60;3.30;;;15.30;1.00;;;;;;6244283;23;20470;-39
2023/09/26 01:15:39;;;;;;;4.10;3.70;;;15.30;1.00;;;;;;6243587;23;20495;-39
2023/09/26 01:18:08;;;;;;;3.53;3.23;;;15.30;1.00;;;;;;6245220;22;20509;-37
2023/09/26 01:20:37;;;;;;;4.73;3.63;;;15.30;1.00;;;;;;6247985;22;20645;-37
2023/09/26 01:23:08;;;;;;;3.53;3.23;;;15.20;1.00;;;;;;6248810;22;20352;-39
2023/09/26 01:25:34;;;;;;;5.20;3.93;;;15.20;1.00;;;;;;6248735;22;20682;-38
2023/09/26 01:28:05;;;;;;;3.50;3.10;;;15.20;1.00;;;;;;6248458;22;20376;-37
2023/09/26 01:30:33;;;;;;;3.80;3.40;;;15.20;1.00;;;;;;6247185;22;20380;-38
2023/09/26 01:32:59;;;;;;;3.67;3.30;;;15.20;1.00;;;;;;6248694;22;20387;-39
2023/09/26 01:35:24;;;;;;;5.60;3.93;;;15.20;1.00;;;;;;6248101;22;20439;-37
2023/09/26 01:37:50;;;;;;;4.97;3.57;;;15.10;1.00;;;;;;6248338;23;20360;-37
2023/09/26 01:40:16;;;;;;;3.67;3.30;;;15.10;1.00;;;;;;6248880;22;20297;-41
2023/09/26 01:42:42;;;;;;;3.40;3.10;;;15.10;1.00;;;;;;6249216;22;20236;-39
2023/09/26 01:45:09;;;;;;;3.90;3.40;;;15.10;1.00;;;;;;6247902;23;20497;-37
2023/09/26 01:47:42;;;;;;;4.47;3.90;;;15.10;1.00;;;;;;6248507;22;20157;-41
2023/09/26 01:50:08;;;;;;;4.90;3.50;;;15.00;1.00;;;;;;6246764;23;20599;-39
2023/09/26 01:52:35;;;;;;;3.50;3.20;;;15.00;1.00;;;;;;6248064;22;20648;-37
2023/09/26 01:55:03;;;;;;;3.10;2.90;;;15.00;1.00;;;;;;6248717;22;20383;-39
2023/09/26 01:57:28;;;;;;;3.90;3.50;;;15.00;1.00;;;;;;6247790;22;20391;-39
2023/09/26 01:59:54;;;;;;;3.53;3.20;;;15.00;1.00;;;;;;6248302;22;20470;-37
2023/09/26 02:02:20;;;;;;;3.30;3.00;;;15.00;1.00;;;;;;6246526;23;20228;-40
2023/09/26 02:04:45;;;;;;;3.50;3.20;;;14.90;1.00;;;;;;6247819;23;20184;-39
2023/09/26 02:07:11;;;;;;;3.30;2.70;;;14.90;1.00;;;;;;6247972;23;20150;-38
2023/09/26 02:09:36;;;;;;;4.00;3.60;;;14.90;1.00;;;;;;6248448;22;20185;-39
2023/09/26 02:12:03;;;;;;;3.97;3.50;;;14.90;1.00;;;;;;6247245;23;20501;-38
2023/09/26 02:14:29;;;;;;;3.63;3.33;;;14.80;1.00;;;;;;6248489;22;20287;-37
2023/09/26 02:16:54;;;;;;;3.70;3.37;;;14.80;1.00;;;;;;6247152;23;20360;-38
2023/09/26 02:19:20;;;;;;;4.80;3.67;;;14.80;1.00;;;;;;6248781;23;20153;-37
2023/09/26 02:21:46;;;;;;;3.60;3.30;;;14.80;1.00;;;;;;6248763;23;20188;-39
2023/09/26 02:24:12;;;;;;;3.87;3.30;;;14.80;1.00;;;;;;6247825;23;20181;-36
2023/09/26 02:26:37;;;;;;;3.43;3.13;;;14.80;1.00;;;;;;6248053;23;20153;-38
2023/09/26 02:29:03;;;;;;;3.40;3.10;;;14.80;1.00;;;;;;6247483;23;20831;-39
2023/09/26 02:31:28;;;;;;;3.93;3.23;;;14.80;1.00;;;;;;6248620;23;20153;-39
2023/09/26 02:33:54;;;;;;;3.40;3.10;;;14.70;1.00;;;;;;6248980;23;20345;-37
2023/09/26 02:36:19;;;;;;;3.80;3.50;;;14.70;1.00;;;;;;6248641;23;20150;-40
2023/09/26 02:38:45;;;;;;;3.90;3.60;;;14.70;1.00;;;;;;6247304;23;20161;-40
2023/09/26 02:41:11;;;;;;;4.63;3.73;;;14.70;1.00;;;;;;6247833;23;20192;-40
2023/09/26 02:43:37;;;;;;;3.43;3.13;;;14.70;1.00;;;;;;6247760;22;20126;-39
2023/09/26 02:49:25;;;;;;;4.17;3.80;;;14.60;1.00;;;;;;6247810;23;20444;-40
2023/09/26 02:51:50;;;;;;;5.60;4.33;;;14.60;1.00;;;;;;6247944;23;20388;-39
2023/09/26 02:54:16;;;;;;;3.70;3.40;;;14.60;1.00;;;;;;6246861;22;20157;-39
2023/09/26 02:56:41;;;;;;;3.67;3.20;;;14.60;1.00;;;;;;6247529;23;20176;-40
2023/09/26 02:59:07;;;;;;;3.70;3.40;;;14.50;1.00;;;;;;6248937;23;20154;-41
2023/09/26 03:01:33;;;;;;;3.50;3.20;;;14.50;1.00;;;;;;6247201;22;20181;-37
2023/09/26 03:03:58;;;;;;;3.70;3.40;;;14.50;1.00;;;;;;6247986;23;20158;-38
2023/09/26 03:06:24;;;;;;;3.73;3.43;;;14.50;1.00;;;;;;6245846;23;20130;-41
2023/09/26 03:08:49;;;;;;;3.53;3.23;;;14.50;1.00;;;;;;6247260;22;20315;-38
2023/09/26 03:11:15;;;;;;;4.20;3.50;;;14.50;1.00;;;;;;6246249;23;20153;-39
2023/09/26 03:13:40;;;;;;;4.43;3.60;;;14.50;1.00;;;;;;6245645;23;20221;-38
2023/09/26 03:16:08;;;;;;;3.07;2.87;;;14.50;1.00;;;;;;6247044;23;20516;-37
2023/09/26 03:18:34;;;;;;;3.67;3.00;;;14.50;1.00;;;;;;6247143;22;20236;-37
2023/09/26 03:21:04;;;;;;;3.87;3.50;;;14.40;1.00;;;;;;6246684;22;20380;-40
2023/09/26 03:23:30;;;;;;;7.70;4.10;;;14.40;1.00;;;;;;6246175;22;20384;-38
2023/09/26 03:25:55;;;;;;;4.20;3.40;;;14.40;1.00;;;;;;6245484;23;20830;-39
2023/09/26 03:28:21;;;;;;;4.60;3.40;;;14.40;1.00;;;;;;6245839;23;20222;-38
2023/09/26 03:30:46;;;;;;;4.63;3.73;;;14.40;1.00;;;;;;6245235;23;20160;-39
2023/09/26 03:33:12;;;;;;;5.30;3.57;;;14.40;1.00;;;;;;6245793;23;20181;-39
2023/09/26 03:35:37;;;;;;;4.20;3.80;;;14.40;1.00;;;;;;6245488;22;20134;-38
2023/09/26 03:38:03;;;;;;;4.07;3.70;;;14.30;1.00;;;;;;6246227;23;20164;-39
2023/09/26 03:40:29;;;;;;;4.17;3.77;;;14.30;1.00;;;;;;6245665;23;20489;-39
2023/09/26 03:42:55;;;;;;;3.90;3.50;;;14.30;1.00;;;;;;6246104;22;20157;-37
2023/09/26 03:45:24;;;;;;;3.40;3.10;;;14.30;1.00;;;;;;6245583;23;20415;-38
2023/09/26 03:47:50;;;;;;;4.00;3.60;;;14.30;1.00;;;;;;6244101;22;20147;-40
2023/09/26 03:50:15;;;;;;;4.03;3.63;;;14.20;1.00;;;;;;6244267;22;20435;-39
2023/09/26 03:52:41;;;;;;;3.90;3.60;;;14.20;1.00;;;;;;6244034;23;20476;-40
2023/09/26 03:55:07;;;;;;;3.80;3.50;;;14.20;1.00;;;;;;6244800;23;20444;-39
2023/09/26 03:57:33;;;;;;;3.73;3.20;;;14.20;1.00;;;;;;6245444;22;20234;-38
2023/09/26 04:00:00;;;;;;;3.77;3.13;;;14.20;1.00;;;;;;6245210;23;20357;-41
2023/09/26 04:02:25;;;;;;;5.27;4.00;;;14.20;1.00;;;;;;6245101;22;20376;-39
2023/09/26 04:04:51;;;;;;;3.97;3.60;;;14.10;1.00;;;;;;6243276;23;20431;-40
2023/09/26 04:07:16;;;;;;;4.13;3.73;;;14.10;1.00;;;;;;6243878;23;20153;-40
2023/09/26 04:09:42;;;;;;;3.83;3.53;;;14.10;1.00;;;;;;6243323;23;20493;-40
2023/09/26 04:12:08;;;;;;;4.00;3.60;;;14.10;1.00;;;;;;6243862;23;20178;-39
2023/09/26 04:14:33;;;;;;;3.80;3.43;;;14.10;1.00;;;;;;6243410;23;20140;-38
2023/09/26 04:16:59;;;;;;;3.67;3.37;;;14.10;2.80;;;;;;6245430;23;20157;-38
2023/09/26 04:19:24;;;;;;;4.00;3.67;;;14.10;22.00;;;;;;6243004;23;20168;-39
2023/09/26 04:21:53;;;;;;;4.07;3.77;;;14.10;27.80;;;;;;6240637;23;20154;-40
2023/09/26 04:24:19;;;;;;;3.93;3.30;;;14.10;13.70;;;;;;6241121;23;20161;-41
2023/09/26 04:26:45;;;;;;;4.10;3.70;;;14.00;12.90;;;;;;6242707;22;20447;-41
2023/09/26 04:29:11;;;;;;;3.30;3.00;;;14.00;3.20;;;;;;6243196;23;20391;-51
2023/09/26 04:31:36;;;;;;;4.97;3.97;;;14.00;22.30;;;;;;6242376;22;20433;-39
2023/09/26 04:34:02;;;;;;;4.40;4.00;;;14.00;37.50;;;;;;6243628;23;20149;-39
2023/09/26 04:36:31;;;;;;;3.53;3.23;;;14.00;45.90;;;;;;6243512;22;20153;-38
2023/09/26 04:38:57;;;;;;;3.97;3.67;;;14.00;49.30;;;;;;6243814;23;20371;-38
2023/09/26 04:41:22;;;;;;;3.30;3.00;;;14.00;89.60;;;;;;6244309;23;20376;-40
2023/09/26 04:43:48;;;;;;;3.60;3.30;;;14.00;99.90;;;;;;6242689;23;20240;-38
2023/09/26 04:46:15;;;;;;;4.27;3.87;;;14.00;99.90;;;;;;6243558;23;20153;-39
2023/09/26 04:48:42;;;;;;;3.70;3.30;;;13.90;99.90;;;;;;6243613;23;20256;-40
2023/09/26 04:51:13;;;;;;;6.70;3.60;;;13.90;99.90;;;;;;6245621;22;20359;-40
2023/09/26 04:53:40;;;;;;;4.13;3.60;;;13.90;99.90;;;;;;6244584;22;20421;-39
2023/09/26 04:56:06;;;;;;;3.73;3.33;;;13.90;99.90;;;;;;6241617;22;20837;-39
2023/09/26 04:58:33;;;;;;;5.50;3.93;;;13.90;99.90;;;;;;6244236;22;20756;-40
2023/09/26 05:01:11;;;;;;;3.73;3.43;;;13.90;99.90;;;;;;6242842;22;20458;-39
2023/09/26 05:03:36;;;;;;;3.70;3.40;;;13.90;99.90;;;;;;6243583;22;20391;-42
2023/09/26 05:06:02;;;;;;;4.03;3.20;;;13.90;99.90;;;;;;6242470;23;20744;-41
2023/09/26 05:08:27;;;;;;;4.33;3.87;;;13.90;99.90;;;;;;6244248;22;20153;-38
2023/09/26 05:10:53;;;;;;;3.97;3.57;;;13.90;99.90;;;;;;6240592;23;20170;-40
2023/09/26 05:13:19;;;;;;;3.60;3.20;;;13.90;98.10;;;;;;6240748;23;20435;-38
2023/09/26 05:15:44;;;;;;;4.80;3.80;;;13.90;98.90;;;;;;6242675;23;20199;-39
2023/09/26 05:18:10;;;;;;;5.50;3.40;;;13.80;99.90;;;;;;6242349;23;20374;-38
2023/09/26 05:20:36;;;;;;;4.70;3.70;;;13.80;99.90;;;;;;6243800;23;20188;-39
2023/09/26 05:23:03;;;;;;;3.73;3.30;;;13.80;99.90;;;;;;6240769;22;20153;-38
2023/09/26 05:25:28;;;;;;;4.13;3.73;;;13.80;99.90;;;;;;6239052;23;20427;-38
2023/09/26 05:27:54;;;;;;;4.30;3.90;;;13.80;99.90;;;;;;6243271;22;20457;-40
2023/09/26 05:30:20;;;;;;;4.77;4.27;;;13.90;99.90;;;;;;6239784;23;20213;-42
2023/09/26 05:32:45;;;;;;;6.33;3.70;;;13.80;99.90;;;;;;6242449;23;20141;-40
2023/09/26 05:35:11;;;;;;;3.87;3.57;;;13.90;99.90;;;;;;6240004;23;20560;-41
2023/09/26 05:37:37;;;;;;;5.80;4.00;;;13.80;99.90;;;;;;6239799;22;20228;-42
2023/09/26 05:40:06;;;;;;;4.13;3.77;;;13.90;99.90;;;;;;6239403;23;20394;-39
2023/09/26 05:42:33;;;;;;;4.17;3.87;;;13.90;99.90;;;;;;6241835;22;20402;-39
2023/09/26 05:44:59;;;;;;;4.73;3.83;;;13.90;99.90;;;;;;6242281;22;20526;-39
2023/09/26 05:47:24;;;;;;;4.30;4.00;;;13.90;99.90;;;;;;6243470;23;20407;-38
2023/09/26 05:49:51;;;;;;;7.77;3.73;;;13.90;99.90;;;;;;6246366;23;20150;-40
2023/09/26 05:52:18;;;;;;;4.40;4.00;;;14.00;99.90;;;;;;6244167;22;20154;-40
2023/09/26 05:54:44;;;;;;;3.90;3.60;;;14.00;99.90;;;;;;6246006;22;20783;-42
2023/09/26 05:57:10;;;;;;;4.00;3.50;;;14.10;99.90;;;;;;6244412;22;20372;-38
2023/09/26 05:59:36;;;;;;;4.60;3.83;;;14.30;99.90;;;;;;6244663;23;20361;-42
2023/09/26 06:02:01;;;;;;;8.13;4.60;;;14.40;56.10;;;;;;6243962;22;20157;-37
2023/09/26 06:04:27;;;;;;;11.17;4.60;;;14.60;1.00;;;;;;6243150;23;20184;-39
2023/09/26 06:06:54;;;;;;;12.50;4.10;;;15.00;99.90;;;;;;6242777;23;20649;-38
2023/09/26 06:09:19;;;;;;;6.20;3.37;;;15.50;1.00;;;;;;6242819;22;20185;-39
2023/09/26 06:11:45;;;;;;;6.27;3.60;;;16.00;76.80;;;;;;6240704;23;20449;-39
2023/09/26 06:14:11;;;;;;;6.87;3.97;;;16.60;1.00;;;;;;6238946;23;20153;-40
2023/09/26 06:16:37;;;;;;;6.10;3.60;;;17.00;99.90;;;;;;6241474;22;20179;-39
2023/09/26 06:19:02;;;;;;;6.63;3.80;;;17.50;99.90;;;;;;6241333;23;20392;-37
2023/09/26 06:21:28;;;;;;;3.83;2.70;;;17.80;99.90;;;;;;6242362;23;20457;-41
2023/09/26 06:23:55;;;;;;;3.57;3.23;;;18.20;99.90;;;;;;6240943;22;20130;-38
2023/09/26 06:26:21;;;;;;;3.53;2.93;;;18.50;34.30;;;;;;6243629;23;20382;-40
2023/09/26 06:28:47;;;;;;;7.83;3.67;;;18.70;1.20;;;;;;6244451;22;20454;-39
2023/09/26 06:31:14;;;;;;;5.60;3.20;;;18.90;1.00;;;;;;6243356;22;20383;-38
2023/09/26 06:33:39;;;;;;;5.83;4.13;;;19.00;1.00;;;;;;6239241;23;20158;-39
2023/09/26 06:36:17;;;;;;;4.90;3.43;;;19.10;1.00;;;;;;6238433;22;20363;-40
2023/09/26 06:38:43;;;;;;;3.77;3.10;;;19.20;1.00;;;;;;6238273;23;20543;-38
2023/09/26 06:41:09;;;;;;;3.83;3.43;;;19.30;1.00;;;;;;6243190;23;20388;-38
2023/09/26 06:43:36;;;;;;;4.27;3.57;;;19.40;1.00;;;;;;6243500;23;20227;-40
2023/09/26 06:46:06;;;;;;;4.27;3.30;;;19.50;1.00;;;;;;6240434;22;20591;-38
2023/09/26 06:48:34;;;;;;;5.83;4.03;;;19.70;1.00;;;;;;6238411;23;20377;-39
2023/09/26 06:51:01;;;;;;;8.37;3.83;;;19.80;1.00;;;;;;6239718;23;20459;-39
2023/09/26 06:53:27;;;;;;;21.40;6.17;;;20.00;1.00;;;;;;6242297;22;20486;-40
2023/09/26 06:56:02;;;;;;;35.17;6.10;;;20.10;1.00;;;;;;6242253;23;20395;-40
2023/09/26 06:58:28;;;;;;;21.33;6.10;;;20.30;1.00;;;;;;6241093;22;20161;-49
2023/09/26 07:00:53;;;;;;;17.03;5.07;;;20.60;1.00;;;;;;6242985;23;20409;-41
2023/09/26 07:03:19;;;;;;;15.77;5.07;;;20.70;1.00;;;;;;6241559;23;20145;-42
2023/09/26 07:05:45;;;;;;;11.23;5.40;;;20.90;1.00;;;;;;6239827;23;20161;-40
2023/09/26 07:08:14;;;;;;;19.67;5.90;;;21.10;1.00;;;;;;6239457;23;20179;-41
2023/09/26 07:10:40;;;;;;;22.37;4.80;;;21.30;1.00;;;;;;6242114;22;20185;-43
2023/09/26 07:13:06;;;;;;;14.43;4.87;;;21.40;1.00;;;;;;6242141;23;20443;-40
2023/09/26 07:15:32;;;;;;;19.93;6.50;;;21.50;1.00;;;;;;6245377;22;20387;-42
2023/09/26 07:18:06;;;;;;;7.83;4.40;;;21.60;1.00;;;;;;6245973;22;20360;-40
2023/09/26 07:20:33;;;;;;;10.87;4.40;;;21.60;1.00;;;;;;6246097;22;20388;-40
2023/09/26 07:22:58;;;;;;;9.47;4.83;;;21.70;1.00;;;;;;6245877;22;20384;-41
2023/09/26 07:25:24;;;;;;;7.80;4.60;;;21.70;1.00;;;;;;6243550;23;20432;-39
2023/09/26 07:27:49;;;;;;;7.10;4.50;;;21.70;1.00;;;;;;6243304;23;20149;-41
2023/09/26 07:30:15;;;;;;;6.47;4.07;;;21.90;1.00;;;;;;6241431;23;20190;-39
2023/09/26 07:32:41;;;;;;;10.97;4.60;;;21.90;1.00;;;;;;6242623;22;20475;-41
2023/09/26 07:35:07;;;;;;;7.90;4.60;;;22.10;1.00;;;;;;6216667;23;20396;-42
2023/09/26 07:37:33;;;;;;;7.70;4.23;;;22.20;1.00;;;;;;6243867;22;20232;-41
2023/09/26 07:40:00;;;;;;;6.00;3.90;;;22.30;1.00;;;;;;6243627;23;20482;-39
2023/09/26 07:42:25;;;;;;;6.93;4.70;;;22.40;1.00;;;;;;6244579;22;20134;-42
2023/09/26 07:44:54;;;;;;;6.00;3.27;;;22.50;1.00;;;;;;6243916;23;20445;-40
2023/09/26 07:47:20;;;;;;;10.33;4.27;;;22.70;1.00;;;;;;6245241;22;20157;-41
2023/09/26 07:49:45;;;;;;;4.23;3.70;;;22.80;1.00;;;;;;6241839;23;20388;-39
2023/09/26 07:52:11;;;;;;;5.80;4.00;;;23.00;1.00;;;;;;6243653;23;20149;-39
2023/09/26 07:54:37;;;;;;;8.03;3.63;;;23.10;1.00;;;;;;6241900;22;20223;-39
2023/09/26 07:57:03;;;;;;;6.43;3.50;;;23.30;1.00;;;;;;6243885;23;20141;-40
2023/09/26 07:59:30;;;;;;;8.27;4.30;;;23.50;1.00;;;;;;6243157;22;20157;-40
2023/09/26 08:01:56;;;;;;;10.63;4.43;;;23.70;1.00;;;;;;6244043;22;20644;-42
2023/09/26 08:04:21;;;;;;;15.57;4.77;;;23.80;1.00;;;;;;6239449;22;20427;-41
2023/09/26 08:06:48;;;;;;;20.00;5.50;;;24.00;1.00;;;;;;6242391;23;20436;-42
2023/09/26 08:09:15;;;;;;;16.77;4.87;;;24.10;1.00;;;;;;6243903;22;20276;-40
2023/09/26 08:11:41;;;;;;;13.03;4.70;;;24.30;1.00;;;;;;6242971;22;20686;-43
2023/09/26 08:14:07;;;;;;;6.83;4.37;;;24.50;1.00;;;;;;6243172;23;20446;-42
2023/09/26 08:16:33;;;;;;;13.63;4.13;;;24.70;1.00;;;;;;6242995;22;20475;-40
2023/09/26 08:18:58;;;;;;;13.63;4.27;;;24.90;1.00;;;;;;6241883;23;20541;-42
2023/09/26 08:21:26;;;;;;;13.70;4.13;;;25.10;1.00;;;;;;6244347;23;20137;-40
2023/09/26 08:23:52;;;;;;;10.13;4.13;;;25.40;1.00;;;;;;6242281;22;20421;-43
2023/09/26 08:26:19;;;;;;;13.20;4.47;;;25.80;1.00;;;;;;6241938;23;20459;-41
2023/09/26 08:28:45;;;;;;;8.63;4.10;;;26.00;1.00;;;;;;6242541;22;20149;-43
2023/09/26 08:31:15;;;;;;;6.13;3.47;;;26.40;1.00;;;;;;6242676;23;20425;-40
2023/09/26 08:33:43;;;;;;;9.53;4.00;;;26.60;1.00;;;;;;6243625;22;20483;-41
2023/09/26 08:36:19;;;;;;;9.93;4.90;;;26.90;1.00;;;;;;6241203;22;20745;-41
2023/09/26 08:38:46;;;;;;;7.23;3.93;;;27.20;1.00;;;;;;6240348;22;20352;-41
2023/09/26 08:41:11;;;;;;;11.53;4.10;;;27.40;1.00;;;;;;6237837;22;20663;-42
2023/09/26 08:43:37;;;;;;;7.70;5.00;;;27.70;1.00;;;;;;6237798;23;20411;-38
2023/09/26 08:46:04;;;;;;;10.37;4.90;;;27.90;1.00;;;;;;6239670;23;20177;-43
2023/09/26 08:48:30;;;;;;;7.27;4.30;;;28.00;1.00;;;;;;6239018;23;20416;-39
2023/09/26 08:50:55;;;;;;;4.97;3.17;;;28.30;1.00;;;;;;6240351;23;20352;-40
2023/09/26 08:53:21;;;;;;;7.77;3.63;;;28.60;1.00;;;;;;6242089;23;20396;-40
2023/09/26 08:55:49;;;;;;;8.00;4.13;;;28.80;1.00;;;;;;6241057;23;20163;-39
2023/09/26 08:58:16;;;;;;;4.60;3.70;;;29.00;1.00;;;;;;6243279;22;20366;-41
2023/09/26 09:00:42;;;;;;;11.73;4.10;;;29.20;1.00;;;;;;6243070;22;20490;-41
2023/09/26 09:03:08;;;;;;;7.23;4.47;;;29.40;1.00;;;;;;6242364;22;20361;-40
2023/09/26 09:05:33;;;;;;;8.37;3.93;;;29.70;1.00;;;;;;6244331;23;20407;-39
2023/09/26 09:07:59;;;;;;;5.07;4.10;;;29.80;1.00;;;;;;6242022;23;20243;-42
2023/09/26 09:10:25;;;;;;;5.00;3.43;;;30.10;1.00;;;;;;6243475;23;20185;-41
2023/09/26 09:13:03;;;;;;;4.67;3.63;;;30.20;1.00;;;;;;6243322;22;20212;-39
2023/09/26 09:15:29;;;;;;;7.97;3.50;;;30.20;1.00;;;;;;6245183;22;20375;-40
2023/09/26 09:17:55;;;;;;;5.43;3.27;;;30.50;1.00;;;;;;6244637;22;20360;-44
2023/09/26 09:20:32;;;;;;;4.27;3.30;;;30.80;1.00;;;;;;6245133;23;20419;-43
2023/09/26 09:23:07;;;;;;;4.10;3.40;;;31.00;1.00;;;;;;6244749;22;20433;-42
2023/09/26 09:25:35;;;;;;;3.50;3.20;;;31.20;1.00;;;;;;6243400;23;20402;-41
2023/09/26 09:28:02;;;;;;;3.70;3.20;;;31.40;1.00;;;;;;6244365;22;20376;-40
2023/09/26 09:30:28;;;;;;;5.93;4.10;;;31.50;1.00;;;;;;6244538;22;20388;-39
2023/09/26 09:32:54;;;;;;;7.30;4.40;;;31.80;1.00;;;;;;6242484;22;20747;-43
2023/09/26 09:35:20;;;;;;;4.57;3.80;;;32.00;1.00;;;;;;6239697;23;20750;-41
2023/09/26 09:37:47;;;;;;;4.83;3.37;;;32.20;1.00;;;;;;6238560;23;20499;-42
2023/09/26 09:40:17;;;;;;;4.73;4.33;;;32.50;1.00;;;;;;6241217;22;20160;-40
2023/09/26 09:42:43;;;;;;;19.90;6.00;;;32.60;1.00;;;;;;6240095;22;20354;-42
2023/09/26 09:45:09;;;;;;;11.23;5.10;;;32.70;1.00;;;;;;6241246;23;20859;-44
2023/09/26 09:47:37;;;;;;;9.93;4.20;;;32.90;1.00;;;;;;6244365;22;20415;-42
2023/09/26 09:50:05;;;;;;;9.93;4.67;;;33.30;1.00;;;;;;6243696;22;20363;-42
2023/09/26 09:52:31;;;;;;;9.20;4.23;;;33.40;1.00;;;;;;6243793;23;20670;-43
2023/09/26 09:54:57;;;;;;;6.27;4.10;;;33.60;1.00;;;;;;6241919;23;20366;-43
2023/09/26 09:57:24;;;;;;;7.03;3.63;;;33.90;1.00;;;;;;6240205;23;20372;-41
2023/09/26 09:59:51;;;;;;;9.97;3.50;;;34.10;1.00;;;;;;6242746;22;20468;-42
2023/09/26 10:02:17;;;;;;;5.90;3.63;;;34.10;1.00;;;;;;6244703;22;20599;-41
2023/09/26 10:04:47;;;;;;;4.10;3.40;;;34.30;1.00;;;;;;6243555;23;20438;-41
2023/09/26 10:07:15;;;;;;;4.20;3.50;;;34.60;1.00;;;;;;6242490;22;20158;-42
2023/09/26 10:09:41;;;;;;;4.03;3.13;;;34.60;1.00;;;;;;6243455;22;20586;-41
2023/09/26 10:12:08;;;;;;;4.67;3.13;;;34.80;1.00;;;;;;6243327;23;20409;-42
2023/09/26 10:14:33;;;;;;;6.97;3.10;;;35.20;1.00;;;;;;6241684;22;20371;-42
2023/09/26 10:16:59;;;;;;;3.57;3.27;;;35.40;1.00;;;;;;6241614;23;20380;-42
2023/09/26 10:19:27;;;;;;;4.20;3.90;;;35.40;1.00;;;;;;6243591;22;20472;-42
2023/09/26 10:21:52;;;;;;;3.40;3.10;;;35.40;1.00;;;;;;6243721;22;20408;-40
2023/09/26 10:24:18;;;;;;;6.20;3.07;;;35.40;1.00;;;;;;6243736;23;20331;-42
2023/09/26 10:26:51;;;;;;;4.20;3.00;;;35.20;1.00;;;;;;6247144;23;20150;-40
2023/09/26 10:29:28;;;;;;;4.83;2.77;;;35.30;1.00;;;;;;6243129;22;20268;-40
2023/09/26 10:32:04;;;;;;;2.90;2.70;;;35.40;1.00;;;;;;6242769;23;20646;-43
2023/09/26 10:34:35;;;;;;;3.83;3.00;;;35.70;1.00;;;;;;6242989;23;20387;-40
2023/09/26 10:37:02;;;;;;;6.63;3.57;;;35.80;1.00;;;;;;6243130;22;20384;-45
2023/09/26 10:39:46;;;;;;;5.20;3.57;;;36.20;1.00;;;;;;6242851;22;20389;-45
2023/09/26 10:42:13;;;;;;;6.80;3.43;;;36.10;1.00;;;;;;6244145;23;20422;-40
2023/09/26 10:44:43;;;;;;;3.43;2.70;;;36.00;1.00;;;;;;6242845;22;20397;-41
2023/09/26 10:47:12;;;;;;;3.10;2.80;;;36.10;1.00;;;;;;6243095;23;20969;-41
2023/09/26 10:49:37;;;;;;;3.27;2.80;;;36.30;1.00;;;;;;6242981;22;20355;-41
2023/09/26 10:52:03;;;;;;;3.03;2.77;;;36.40;1.00;;;;;;6241920;23;20518;-40
2023/09/26 10:54:30;;;;;;;3.10;2.80;;;36.40;1.00;;;;;;6241375;22;20328;-41
2023/09/26 10:56:58;;;;;;;3.30;2.20;;;36.40;1.00;;;;;;6241291;22;20332;-42
2023/09/26 10:59:26;;;;;;;3.37;2.37;;;36.60;1.00;;;;;;6240142;22;20384;-42
2023/09/26 11:01:55;;;;;;;4.60;2.80;;;36.70;1.00;;;;;;6241076;22;20478;-43
2023/09/26 11:04:20;;;;;;;8.40;2.87;;;36.90;1.00;;;;;;6242097;22;20479;-42
2023/09/26 11:06:46;;;;;;;3.40;3.07;;;37.00;1.00;;;;;;6242520;23;20477;-41
2023/09/26 11:09:12;;;;;;;6.03;3.40;;;37.20;1.00;;;;;;6240747;23;20186;-44
2023/09/26 11:11:38;;;;;;;5.70;2.80;;;37.30;1.00;;;;;;6241257;22;20130;-43
2023/09/26 11:14:04;;;;;;;4.07;3.17;;;37.60;1.00;;;;;;6240668;23;20802;-42
2023/09/26 11:16:29;;;;;;;4.40;2.90;;;37.60;1.00;;;;;;6241806;23;20149;-41
2023/09/26 11:18:55;;;;;;;4.20;3.27;;;37.80;1.00;;;;;;6242925;23;20485;-42
2023/09/26 11:21:21;;;;;;;3.40;2.30;;;37.80;1.00;;;;;;6239980;22;20141;-42
2023/09/26 11:23:47;;;;;;;2.60;2.40;;;38.00;1.00;;;;;;6240826;22;20360;-38
2023/09/26 11:26:12;;;;;;;11.10;3.73;;;38.10;1.00;;;;;;6232950;23;20176;-38
2023/09/26 11:28:38;;;;;;;6.10;3.13;;;38.30;1.00;;;;;;6237707;23;20157;-40
2023/09/26 11:31:04;;;;;;;5.53;3.30;;;38.40;1.00;;;;;;6237686;23;20283;-42
2023/09/26 11:33:31;;;;;;;3.77;2.60;;;38.70;1.00;;;;;;6237094;23;20727;-41
2023/09/26 11:35:56;;;;;;;4.10;2.83;;;38.70;1.00;;;;;;6236946;22;20499;-41
2023/09/26 11:38:22;;;;;;;4.10;2.87;;;38.50;1.00;;;;;;6239563;23;20555;-39
2023/09/26 11:40:47;;;;;;;2.63;2.43;;;38.50;1.00;;;;;;6240260;23;20163;-39
2023/09/26 11:43:13;;;;;;;5.83;2.53;;;38.70;1.00;;;;;;6237179;23;20245;-43
2023/09/26 11:45:39;;;;;;;8.57;3.23;;;38.70;1.00;;;;;;6239412;23;20615;-39
2023/09/26 11:48:07;;;;;;;7.50;3.40;;;38.80;1.00;;;;;;6240528;23;20137;-41
2023/09/26 11:50:36;;;;;;;5.63;3.47;;;39.10;1.00;;;;;;6241190;23;20148;-40
2023/09/26 11:53:02;;;;;;;5.73;3.10;;;39.30;1.00;;;;;;6241403;23;20387;-40
2023/09/26 11:55:31;;;;;;;2.73;2.53;;;39.30;1.00;;;;;;6242436;23;20568;-41
2023/09/26 11:57:58;;;;;;;5.60;3.20;;;39.50;1.00;;;;;;6242048;23;20391;-39
2023/09/26 12:00:26;;;;;;;9.77;3.47;;;39.50;1.00;;;;;;6240506;22;20367;-40
2023/09/26 12:02:52;;;;;;;10.00;3.73;;;39.40;1.00;;;;;;6239998;22;20357;-39
2023/09/26 12:05:20;;;;;;;7.33;2.97;;;39.50;1.00;;;;;;6238371;23;20380;-42
2023/09/26 12:07:47;;;;;;;3.20;2.83;;;39.60;1.00;;;;;;6238537;22;20395;-42
2023/09/26 12:10:13;;;;;;;3.07;2.50;;;39.60;1.00;;;;;;6237807;22;20428;-40
2023/09/26 12:12:39;;;;;;;2.80;2.60;;;39.70;1.00;;;;;;6237839;23;20651;-42
2023/09/26 12:15:22;;;;;;;3.40;2.27;;;39.70;1.00;;;;;;6238964;23;20396;-40
2023/09/26 12:17:52;;;;;;;6.73;3.07;;;39.90;1.00;;;;;;6240958;22;20555;-42
2023/09/26 12:20:22;;;;;;;3.40;3.10;;;40.10;1.00;;;;;;6242094;22;20819;-41
2023/09/26 12:22:49;;;;;;;10.60;3.43;;;40.30;1.00;;;;;;6240169;22;20784;-39
2023/09/26 12:25:15;;;;;;;10.00;3.33;;;40.20;1.00;;;;;;6241005;23;20390;-42
2023/09/26 12:27:40;;;;;;;12.97;4.37;;;40.00;1.00;;;;;;6243205;23;20746;-40
2023/09/26 12:30:07;;;;;;;24.13;6.27;;;40.00;1.00;;;;;;6242632;23;20427;-39
2023/09/26 12:32:33;;;;;;;16.10;5.10;;;39.90;1.00;;;;;;6242931;22;20154;-40
2023/09/26 12:34:58;;;;;;;16.90;5.50;;;40.10;1.00;;;;;;6235862;23;20424;-41
2023/09/26 12:37:24;;;;;;;26.23;7.30;;;40.40;1.00;;;;;;6239597;23;20398;-40
2023/09/26 12:39:49;;;;;;;18.97;5.27;;;40.70;1.00;;;;;;6241421;23;20168;-40
2023/09/26 12:42:15;;;;;;;15.23;4.97;;;40.60;1.00;;;;;;6240707;23;20363;-40
2023/09/26 12:44:41;;;;;;;9.63;3.50;;;40.60;1.00;;;;;;6240111;23;20184;-39
2023/09/26 12:47:07;;;;;;;8.07;3.73;;;40.50;1.00;;;;;;6240036;22;20402;-39
2023/09/26 12:49:33;;;;;;;6.90;3.03;;;40.60;1.00;;;;;;6240761;22;20157;-38
2023/09/26 12:51:58;;;;;;;8.17;3.10;;;40.30;1.00;;;;;;6239575;23;20656;-40
2023/09/26 12:54:25;;;;;;;10.03;3.30;;;40.20;1.00;;;;;;6236548;23;20169;-39